Tiempo atmosférico en la estación meteorológica de Puerto de Navacerrada, Madrid (1894 m.)



Fecha
DESCASC
Temp. máxima en grados centígrados (hora)
DESCASC
Temp. mínima en grados centígrados (hora)
DESCASC
Temp. media en grados centígrados
DESCASC
Racha de viento máxima en m/sg (hora)
DESCASC
Velocidad máxima media en intervalos de 10 minutos(hora)
DESCASC
Precipitaciones diarias en mm
DESCASC
Precipitaciones de 00:00 a 06:00 en mm
DESCASC
Precipitaciones de 06:00 a 12:00 en mm
DESCASC
Precipitaciones de 12:00 a 18:00 en mm
DESCASC
Precipitaciones de 18:00 a 24:00 en mm
DESCASC
22-11-2020 10.7 (13:50) 4.4 (07:20) 7.5 7.5 (02:00) 4.72 (01:40) 0 0 0 0 0
21-11-2020 14.5 (13:00) 4.7 (00:30) 9.6 8.61 (21:50) 6.67 (21:50) 0 0 0 0 0
20-11-2020 9.1 (12:20) 2.5 (18:40) 5.8 9.72 (21:00) 6.94 (09:30) 0 0 0 0 0
19-11-2020 13.1 (13:20) 5.4 (00:00) 9.3 9.17 (11:40) 5.83 (21:20) 0 0 0 0 0
18-11-2020 14.5 (13:10) 8.4 (00:00) 11.4 8.06 (07:50) 4.72 (22:40) 0 0 0 0 0
17-11-2020 15.3 (14:50) 7.2 (00:00) 11.3 7.22 (20:50) 4.44 (04:20) 0 0 0 0 0
16-11-2020 11.2 (15:10) 4.8 (00:00) 8 12.78 (01:00) 5.56 (06:00) 2.2 2 0.2 0 0
15-11-2020 10.2 (11:50) 4.7 (00:00) 7.4 17.22 (15:30) 8.61 (15:30) 0.4 0.2 0 0.2 0
14-11-2020 7.9 (16:40) 3.3 (00:00) 5.6 11.39 (01:10) 6.67 (06:20) 2.2 0 1.6 0.6 0
13-11-2020 11 (13:20) 3.1 (00:00) 7 13.06 (22:10) 8.61 (21:10) 0 0 0 0 0
12-11-2020 11 (12:20) 4.3 (00:00) 7.7 -- (--) -- (--) -- 0 -- 0 0
11-11-2020 9.9 (15:30) 1.9 (00:00) 5.9 13.06 (12:20) 8.33 (06:40) 0 0 0 0 0
10-11-2020 9.1 (15:10) 1.9 (00:00) 5.5 8.06 (23:40) 5.56 (23:20) 0 0 0 0 0
09-11-2020 6.7 (12:10) 2.3 (00:00) 4.5 14.17 (00:20) 8.89 (00:10) 4 4 0 0 0
08-11-2020 4.9 (15:30) 2 (00:00) 3.5 16.67 (07:40) 10 (10:30) 0.4 0.2 0 0 0.2
07-11-2020 6.5 (00:00) 2.1 (00:00) 4.3 25.28 (00:40) 13.33 (01:20) 32.2 16.8 8 7.2 0.2
06-11-2020 8.5 (10:50) 4.8 (00:00) 6.7 31.39 (20:30) 14.44 (21:30) 12.6 0.2 0 0.6 11.8
05-11-2020 5.5 (22:30) 2.3 (00:00) 3.9 32.78 (10:00) 14.72 (19:50) 37 2.2 4 21.8 9
04-11-2020 4.2 (12:50) 0.9 (00:00) 2.5 18.33 (22:10) 10 (22:50) 9.2 0.2 0.4 2.8 5.8
03-11-2020 8.2 (01:20) 3 (00:00) 5.6 6.11 (07:40) 3.61 (08:00) 2.4 0 1 0.4 1
02-11-2020 14.9 (11:00) 8 (00:00) 11.4 6.94 (01:00) 4.72 (01:30) 0 0 0 0 0
01-11-2020 15.5 (15:20) 7.5 (00:00) 11.5 6.94 (02:00) 4.44 (03:20) 0 0 0 0 0
31-10-2020 15.9 (12:40) 7.4 (00:00) 11.6 7.5 (01:00) 4.72 (01:00) 0 0 0 0 0
30-10-2020 16.5 (11:50) 6.8 (00:00) 11.7 7.22 (03:50) 4.72 (03:20) 0 0 0 0 0
29-10-2020 16.3 (12:30) 5 (00:00) 10.6 7.78 (22:00) 5 (23:10) 0 0 0 0 0
28-10-2020 9.7 (14:40) 3.8 (00:00) 6.7 10 (11:10) 4.17 (11:10) 10 2.6 6.4 1 0

Gráficas

Temp. máximas Temp. mínimas Temp. medias Precipitaciones Rachas de viento máximas Velocidades máximas media en intervalos de 10 minutos

Datos horarios

Fecha y hora oficial Temperatura (ºC) Velocidad del viento (km/h) Dirección del viento Racha (km/h) Dirección de racha Precipitación (mm) Presión (hPa) Tendencia (hPa) Humedad (%)
2020-11-26 23:00:00 2.8 38 Sudeste 101 Sudeste 0 804.7 0.5 100
2020-11-26 22:00:00 3.2 31 Sudeste 87 Sur 0 804.6 0.6 100
2020-11-26 21:00:00 3.2 25 Sudeste 77 Sudeste 0 804.4 0.9 100
2020-11-26 20:00:00 3 24 Sudeste 81 Sudeste 0 804.2 1 100
2020-11-26 19:00:00 3.1 30 Sudeste 91 Sudeste 0 804 0.6 100
2020-11-26 18:00:00 2.9 24 Sudeste 80 Sudeste 0 803.5 0.1 100
2020-11-26 17:00:00 2.7 25 Sudeste 82 Sudeste 0 803.2 -0.4 100
2020-11-26 16:00:00 2.5 23 Sudeste 86 Sudeste 0 803.4 -0.5 100
2020-11-26 15:00:00 2.2 30 Este 97 Sudeste 0 803.4 -1 100
2020-11-26 14:00:00 1.9 31 Este 81 Este 0 803.6 -1 100
2020-11-26 13:00:00 1.6 39 Sudeste 83 Sudeste 0 803.9 -- 100
2020-11-26 12:00:00 1.4 32 Este 70 Este 0 804.4 -- 100
2020-11-26 11:00:00 1.9 26 Sudeste 78 Sudeste 0 804.6 -- 100
2020-11-26 10:00:00 1.7 22 Sudeste 59 Este 0 804.6 -- 100
2020-11-26 09:00:00 0.9 26 Sudeste 56 Sudeste 0 804.5 -- 100
2020-11-26 08:00:00 0.6 18 Sudeste 42 Este 0 804.8 -- 100
2020-11-26 07:00:00 0.7 17 Este 52 Sudeste 0 804.5 -- 100
2020-11-26 06:00:00 1.2 26 Sudeste 58 Sudeste 0 804.2 -- 100
2020-11-26 05:00:00 1.1 16 Sudeste 66 Sudeste 0 803.9 -- 100
2020-11-26 04:00:00 0.9 15 Sudeste 50 Sudeste 0 804 -- 100
2020-11-26 03:00:00 1.2 23 Sudeste 63 Sur 0 804 -- 100
2020-11-26 02:00:00 1.6 24 Sudeste 64 Sur 0 804.4 -- 100
2020-11-26 01:00:00 1.6 40 Sur 75 Sur 0 805 -- 100
2020-11-26 00:00:00 1.8 36 Sudeste 73 Sudeste 0 805 -- 100
2020-11-25 23:00:00 2.1 38 Sudeste 67 Sudeste 0 805.3 -- 100
2020-11-25 22:00:00 2 36 Sudeste 69 Sudeste 0 805.1 -- 100
2020-11-25 21:00:00 1.4 40 Sudeste 81 Sur 0 805 -- 100
2020-11-25 20:00:00 1.4 35 Sudeste 66 Sur 0 804.9 -- 100
2020-11-25 19:00:00 1.5 30 Sudeste 69 Sudeste 0 805 -- 100
2020-11-25 18:00:00 1.3 42 Sudeste 73 Sur 0 804.9 -- 100
2020-11-25 17:00:00 1.4 38 Sudeste 67 Sudeste 0 805.3 -- 100
2020-11-25 16:00:00 1.1 32 Sudeste 60 Sudeste 0 805.2 -- 100
2020-11-25 15:00:00 1.1 35 Sudeste 60 Sur 0 805.8 -- 99
2020-11-25 14:00:00 1.3 31 Sudeste 59 Sur 0 806.4 -- 100
2020-11-25 13:00:00 1.2 31 Sur -- -- -- 807 -- 100
2020-11-25 12:00:00 0.9 26 Sur 47 Sur 0 807.8 -- 100
2020-11-25 11:00:00 0.5 26 Sur 54 Sur 0 808 -- 100
2020-11-25 10:00:00 0.3 30 Sur 59 Sur 0 807.8 -- 100
2020-11-25 09:00:00 -0.1 33 Sur 56 Sur 0 807.8 -- 100
2020-11-25 08:00:00 -0.2 26 Sur 50 Sur 0 808 -- 100
2020-11-25 07:00:00 -0.7 22 Sur 45 Sur 0 808.1 -- 100
2020-11-25 06:00:00 -0.7 29 Sur 63 Sur 0 808 -- 100
2020-11-25 05:00:00 -0.9 28 Sur 55 Sur 0 808.2 -- 100
2020-11-25 04:00:00 -0.3 31 Sur 53 Sur 0 808.6 -- 100
2020-11-25 03:00:00 -0.5 31 Sur 54 Sur 0 809 -- 100
2020-11-25 02:00:00 -0.5 32 Sur 51 Sur 0 809.5 -- 100
2020-11-25 01:00:00 -0.5 28 Sur 44 Sur 0 810.1 -- 97
2020-11-25 00:00:00 -0.1 28 Sur 44 Sur 0 810.5 -- 93
2020-11-24 23:00:00 0.4 27 Sur 41 Sur 0 810.9 -- 73
2020-11-24 22:00:00 0.5 22 Sur 36 Sur 0 811.4 -- 79
2020-11-24 21:00:00 1.1 15 Sur 37 Sur 0 811.7 -- 75
2020-11-24 20:00:00 2 9 Sur 33 Sur 0 812 -- 47
2020-11-24 19:00:00 2.4 17 Sur 31 Sur 0 812.1 -- 49
2020-11-24 18:00:00 3 15 Sudeste 23 Sudeste 0 812.5 -- 85
2020-11-24 17:00:00 5.5 9 Sudeste 21 Sur 0 812.5 -- 76
2020-11-24 16:00:00 6.9 13 Sur 20 Sur 0 812.8 -- 74
2020-11-24 15:00:00 7.5 2 Sudoeste 13 Norte 0 813.2 -- 62
2020-11-24 14:00:00 8.6 6 Noroeste 14 Oeste 0 813.9 -- 54
2020-11-24 13:00:00 10.7 7 Sur 15 Sur 0 814.6 -- 54
2020-11-24 12:00:00 9.2 4 Este 8 Nordeste 0 815.4 -- 44
2020-11-24 11:00:00 7.5 2 Nordeste 9 Nordeste 0 815.8 -- 47
2020-11-24 10:00:00 4.7 4 Nordeste 7 Norte 0 815.8 -- 52
2020-11-24 09:00:00 3.8 5 Noroeste 8 Noroeste 0 815.6 -- 52
2020-11-24 08:00:00 4.7 4 Sudoeste 9 Noroeste 0 815.4 -- 38
2020-11-24 07:00:00 5.5 6 Oeste 8 Oeste 0 815.4 -- 28
2020-11-24 06:00:00 5.2 0 Calma 12 Sur 0 815.6 -- 20
2020-11-24 05:00:00 5.6 5 Sudoeste 20 Sudeste 0 815.8 -- 19
2020-11-24 04:00:00 5.9 14 Sudeste 26 Sudeste 0 816.2 -- 18
2020-11-24 03:00:00 5.6 16 Sudeste 25 Sudeste 0 816.6 -- 40
2020-11-24 02:00:00 5.3 13 Sudeste 21 Sudeste 0 817.1 -- 28
2020-11-24 01:00:00 4.7 17 Sudeste 30 Sudeste 0 817.7 -- 53
2020-11-24 00:00:00 5.5 24 Sudeste 32 Sudeste 0 817.8 -- 52
2020-11-23 23:00:00 5.8 19 Sudeste 28 Sudeste 0 818.2 -- 60
2020-11-23 22:00:00 5.6 19 Sudeste 27 Sudeste 0 818.4 -- 67
2020-11-23 21:00:00 5.5 15 Sudeste 22 Sudeste 0 818.6 -- 73
2020-11-23 20:00:00 6.3 10 Sur 12 Sur 0 818.7 -- 66
2020-11-23 19:00:00 6.6 5 Sudoeste 7 Nordeste 0 818.7 -- 67
2020-11-23 18:00:00 7.3 6 Nordeste 8 Norte 0 818.6 -- 62
2020-11-23 17:00:00 9.8 2 Sur 11 Sur 0 818.6 -- 62
2020-11-23 16:00:00 11.3 5 Sudoeste 10 Sudoeste 0 818.5 -- 53
2020-11-23 15:00:00 12.1 2 Sudeste 7 Sur 0 818.8 -- 49
2020-11-23 14:00:00 12.2 0 Calma 9 Sur 0 819.1 -- 48
2020-11-23 13:00:00 13.3 3 Sur 14 Sur 0 819.7 -- 44
2020-11-23 12:00:00 12 2 Este 8 Oeste 0 820 -- 37
2020-11-23 11:00:00 11.3 4 Oeste 7 Oeste 0 820.2 -- 42
2020-11-23 10:00:00 9.2 3 Oeste 7 Sur 0 819.9 -- 46
2020-11-23 09:00:00 6.6 2 Noroeste 7 Noroeste 0 819.6 -- 45
2020-11-23 08:00:00 6.4 3 Noroeste 9 Norte 0 819.4 -- 51
2020-11-23 07:00:00 5.9 4 Norte 8 Noroeste 0 819.2 -- 46
2020-11-23 06:00:00 6.2 6 Noroeste 9 Noroeste 0 819.2 -- 46
2020-11-23 05:00:00 6 7 Oeste 9 Oeste 0 819.3 -- 53
2020-11-23 04:00:00 6.2 5 Oeste 6 Noroeste 0 819.5 -- 51
2020-11-23 03:00:00 6.1 5 Noroeste 8 Norte 0 819.5 -- 50
2020-11-23 02:00:00 6.1 6 Noroeste 8 Noroeste 0 819.8 -- 53
2020-11-23 01:00:00 5.5 4 Noroeste 6 Noroeste 0 820.1 -- 43
2020-11-23 00:00:00 6 6 Noroeste 8 Norte 0 820.2 -- 54
2020-11-22 23:00:00 6.5 4 Oeste 10 Oeste 0 820.2 -- 54
2020-11-22 22:00:00 6.7 6 Oeste 10 Oeste 0 820.2 -- 51
2020-11-22 21:00:00 6.9 4 Noroeste 7 Sudoeste 0 820.2 -- 51
2020-11-22 20:00:00 6.7 5 Sudoeste 11 Noroeste 0 820 -- 52
2020-11-22 19:00:00 6.6 6 Noroeste 14 Noroeste 0 819.8 -- 57
2020-11-22 18:00:00 6.8 4 Nordeste 6 Nordeste 0 819.4 -- 61
2020-11-22 17:00:00 8.5 3 Nordeste 9 Oeste 0 819.4 -- 54
2020-11-22 16:00:00 9.4 4 Oeste 11 Noroeste 0 819.3 -- 52
2020-11-22 15:00:00 9.8 3 Norte 10 Norte 0 819.5 -- 50
2020-11-22 14:00:00 10.4 2 Nordeste 9 Norte 0 819.8 -- 45
2020-11-22 13:00:00 9.5 3 Noroeste 14 Noroeste 0 820.2 -- 41
2020-11-22 12:00:00 8.6 3 Norte 11 Norte 0 820.6 -- 41
2020-11-22 11:00:00 7.7 9 Norte 14 Noroeste 0 820.7 -- 39
2020-11-22 10:00:00 6.9 11 Norte 15 Norte 0 820.4 -- 29
2020-11-22 09:00:00 6 12 Nordeste 15 Norte 0 820 -- 24
2020-11-22 08:00:00 4.5 11 Norte 15 Norte 0 819.8 -- 29
2020-11-22 07:00:00 4.7 10 Norte 14 Norte 0 819.8 -- 32
2020-11-22 06:00:00 5.5 5 Nordeste 11 Noroeste 0 819.7 -- 28
2020-11-22 05:00:00 6.4 5 Noroeste 15 Sur 0 819.7 -- 23
2020-11-22 04:00:00 6.4 11 Sur 21 Sur 0 819.6 -- 19
2020-11-22 03:00:00 6.3 12 Sur 27 Sudeste 0 819.5 -- 19
2020-11-22 02:00:00 6 17 Sur 27 Sur 0 819.6 -- 22
2020-11-22 01:00:00 7.4 12 Sudeste 24 Sur 0 819.8 -- 20
2020-11-22 00:00:00 7 6 Sur 28 Sudeste 0 819.8 -- 21
2020-11-21 23:00:00 6.1 23 Sudeste 30 Sudeste 0 819.8 -- 28
2020-11-21 22:00:00 6.4 23 Sudeste 31 Sudeste 0 819.7 -- 32
2020-11-21 21:00:00 7.3 21 Sudeste 27 Sudeste 0 819.8 -- 24
2020-11-21 20:00:00 7.2 19 Sudeste 26 Sudeste 0 819.8 -- 23
2020-11-21 19:00:00 7.2 7 Sudeste 17 Sudeste 0 819.8 -- 25
2020-11-21 18:00:00 8.1 10 Sudeste 15 Sudeste 0 819.5 -- 36
2020-11-21 17:00:00 10.6 5 Este 10 Nordeste 0 819.3 -- 37
2020-11-21 16:00:00 10.7 3 Este 17 Sudeste 0 819.1 -- 42
2020-11-21 15:00:00 13.2 6 Sur 16 Sur 0 819.1 -- 39
2020-11-21 14:00:00 13.9 4 Sudeste 12 Nordeste 0 819.4 -- 29
2020-11-21 13:00:00 14.1 3 Este 11 Nordeste 0 819.7 -- 26
2020-11-21 12:00:00 13.5 5 Este 15 Este 0 820.1 -- 23
2020-11-21 11:00:00 12.2 6 Este 22 Este 0 820 -- 27
2020-11-21 10:00:00 9.7 14 Este 25 Este 0 819.7 -- 29
2020-11-21 09:00:00 7.2 15 Este 26 Nordeste 0 819.5 -- 38
2020-11-21 08:00:00 6.3 9 Este 21 Este 0 819.3 -- 48
2020-11-21 07:00:00 6.8 8 Nordeste 23 Este 0 819.1 -- 29
2020-11-21 06:00:00 6.4 13 Este 29 Nordeste 0 819.2 -- 21
2020-11-21 05:00:00 6.1 12 Este 21 Este 0 819.4 -- 22
2020-11-21 04:00:00 6.5 12 Este 28 Este 0 819.7 -- 22
2020-11-21 03:00:00 6.6 14 Este 28 Nordeste 0 819.7 -- 20
2020-11-21 02:00:00 6.2 10 Nordeste 18 Nordeste 0 820.1 -- 19
2020-11-21 01:00:00 5.8 10 Nordeste 23 Nordeste 0 820.6 -- 24
2020-11-21 00:00:00 5.9 9 Oeste 28 Nordeste 0 821 -- 38
2020-11-20 23:00:00 5 13 Nordeste 20 Nordeste 0 821.1 -- 26
2020-11-20 22:00:00 3.8 8 Oeste 23 Este 0 821.1 -- 50
2020-11-20 21:00:00 6.4 19 Nordeste 35 Nordeste 0 820.8 -- 27
2020-11-20 20:00:00 2.9 7 Noroeste 19 Oeste 0 821.1 -- 74
2020-11-20 19:00:00 2.7 9 Noroeste 14 Noroeste 0 820.9 -- 91
2020-11-20 18:00:00 3.9 6 Norte 13 Noroeste 0 821.2 -- 85
2020-11-20 17:00:00 7.6 5 Norte 18 Nordeste 0 821.1 -- 64
2020-11-20 16:00:00 7.7 8 Norte 17 Norte 0 821.5 -- 60
2020-11-20 15:00:00 9 3 Norte 22 Norte 0 821.4 -- 51
2020-11-20 14:00:00 8.6 11 Norte 32 Noroeste 0 822 -- 41
2020-11-20 13:00:00 8.4 18 Noroeste 31 Norte 0 822.4 -- 27
2020-11-20 12:00:00 8.2 14 Norte 24 Norte 0 823.3 -- 29
2020-11-20 11:00:00 8 14 Norte 26 Norte 0 823.3 -- 20
2020-11-20 10:00:00 7.1 16 Norte 33 Norte 0 823.1 -- 27
2020-11-20 09:00:00 6 21 Norte 31 Norte 0 823 -- 16
2020-11-20 08:00:00 5.9 20 Norte 28 Norte 0 822.9 -- 13
2020-11-20 07:00:00 5.2 17 Norte 28 Norte 0 822.9 -- 16
2020-11-20 06:00:00 3.6 17 Norte 24 Norte 0 823.2 -- 68
2020-11-20 05:00:00 3.9 11 Norte 23 Norte 0 823.5 -- 81
2020-11-20 04:00:00 4.2 14 Norte 26 Norte 0 823.9 -- 86
2020-11-20 03:00:00 4.3 15 Norte 28 Noroeste 0 823.9 -- 85
2020-11-20 02:00:00 4.7 14 Noroeste 31 Norte 0 824.3 -- 80
2020-11-20 01:00:00 6.2 18 Norte 32 Norte 0 824.8 -- 51
2020-11-20 00:00:00 5.4 11 Norte 28 Norte 0 825.2 -- 74
2020-11-19 23:00:00 6.4 17 Norte 26 Nordeste 0 825.3 -- 53
2020-11-19 22:00:00 5.7 16 Norte 28 Norte 0 825.2 -- 87
2020-11-19 21:00:00 6 20 Norte 32 Nordeste 0 825.2 -- 90
2020-11-19 20:00:00 6.1 19 Nordeste 32 Norte 0 825.3 -- 96
2020-11-19 19:00:00 6.6 19 Norte 27 Norte 0 825.3 -- 97
2020-11-19 18:00:00 7.4 13 Norte 31 Noroeste 0 825.2 -- 96
2020-11-19 17:00:00 8.6 11 Noroeste 25 Noroeste 0 825.1 -- 87
2020-11-19 16:00:00 9.8 9 Noroeste 25 Noroeste 0 824.8 -- 85
2020-11-19 15:00:00 10.7 14 Noroeste 30 Noroeste 0 825.2 -- 79
2020-11-19 14:00:00 12.3 10 Noroeste 25 Norte 0 825.6 -- 66
2020-11-19 13:00:00 12.8 8 Norte 29 Norte 0 825.8 -- 57
2020-11-19 12:00:00 10.5 13 Norte 33 Norte 0 826.3 -- 62
2020-11-19 11:00:00 10.2 14 Norte 28 Norte 0 826.1 -- 60
2020-11-19 10:00:00 9.5 18 Norte 28 Nordeste 0 825.8 -- 60
2020-11-19 09:00:00 7.7 20 Norte 26 Norte 0 825.2 -- 63
2020-11-19 08:00:00 8.7 17 Nordeste 26 Nordeste 0 824.6 -- 61
2020-11-19 07:00:00 8.3 16 Nordeste 23 Nordeste 0 824.4 -- 57
2020-11-19 06:00:00 8.4 16 Nordeste 26 Nordeste 0 824.1 -- 57
2020-11-19 05:00:00 8.5 16 Norte 21 Norte 0 824 -- 58
2020-11-19 04:00:00 8.8 13 Norte 20 Norte 0 823.9 -- 61
2020-11-19 03:00:00 8.9 14 Norte 18 Nordeste 0 823.8 -- 63
2020-11-19 02:00:00 9.1 14 Nordeste 23 Norte 0 823.9 -- 62
2020-11-19 01:00:00 9.5 15 Norte 23 Norte 0 824.1 -- 57
2020-11-19 00:00:00 9.1 13 Nordeste 20 Norte 0 824.1 -- 58
2020-11-18 23:00:00 9.4 15 Norte 25 Noroeste 0 824.1 -- 53
2020-11-18 22:00:00 9.7 14 Norte 20 Norte 0 823.8 -- 50
2020-11-18 21:00:00 9.9 9 Norte 15 Noroeste 0 823.4 -- 48
2020-11-18 20:00:00 10.1 8 Noroeste 15 Noroeste 0 823.1 -- 47
2020-11-18 19:00:00 10.2 7 Noroeste 15 Noroeste 0 822.8 -- 46
2020-11-18 18:00:00 10.9 10 Noroeste 18 Noroeste 0 822.4 -- 46
2020-11-18 17:00:00 13.3 6 Noroeste 15 Oeste 0 822.2 -- 43
2020-11-18 16:00:00 13.7 4 Noroeste 16 Noroeste 0 822.1 -- 44
2020-11-18 15:00:00 14.1 8 Noroeste 17 Norte 0 822.1 -- 39
2020-11-18 14:00:00 14.3 8 Norte 21 Noroeste 0 822.2 -- 36
2020-11-18 13:00:00 14.3 8 Norte 24 Noroeste 0 822.6 -- 35
2020-11-18 12:00:00 13.5 12 Noroeste 26 Noroeste 0 822.8 -- 39
2020-11-18 11:00:00 12.7 9 Noroeste 20 Norte 0 822.7 -- 39
2020-11-18 10:00:00 11.5 10 Norte 21 Noroeste 0 822.5 -- 40
2020-11-18 09:00:00 9.6 10 Norte 24 Noroeste 0 822.2 -- 45
2020-11-18 08:00:00 9.3 13 Norte 29 Noroeste 0 821.6 -- 46
2020-11-18 07:00:00 8.9 9 Norte 24 Noroeste 0 821.3 -- 48
2020-11-18 06:00:00 8.6 7 Noroeste 19 Noroeste 0 821.3 -- 49
2020-11-18 05:00:00 8.5 8 Noroeste 27 Noroeste 0 821.1 -- 50
2020-11-18 04:00:00 8.6 8 Noroeste 21 Noroeste 0 821.2 -- 50
2020-11-18 03:00:00 8.9 10 Noroeste 21 Noroeste 0 821.3 -- 48
2020-11-18 02:00:00 9.1 7 Noroeste 21 Noroeste 0 821.4 -- 48
2020-11-18 01:00:00 9.5 9 Norte 22 Norte 0 821.8 -- 45
2020-11-18 00:00:00 9 9 Nordeste 18 Noroeste 0 821.8 -- 53
2020-11-17 23:00:00 9.4 7 Norte 20 Noroeste 0 821.8 -- 49
2020-11-17 22:00:00 9.5 12 Noroeste 24 Norte 0 821.8 -- 54
2020-11-17 21:00:00 9.8 9 Noroeste 26 Noroeste 0 821.6 -- 51
2020-11-17 20:00:00 9.9 11 Oeste 17 Oeste 0 821.4 -- 44
2020-11-17 19:00:00 10.6 9 Oeste 14 Noroeste 0 821.2 -- 40
2020-11-17 18:00:00 11 8 Noroeste 19 Oeste 0 820.9 -- 41
2020-11-17 17:00:00 13.5 6 Noroeste 14 Noroeste 0 820.9 -- 39
2020-11-17 16:00:00 13.9 7 Noroeste 18 Noroeste 0 820.8 -- 37
2020-11-17 15:00:00 14.6 6 Noroeste 14 Noroeste 0 820.8 -- 47
2020-11-17 14:00:00 14.3 3 Noroeste 8 Noroeste 0 820.8 -- 49
2020-11-17 13:00:00 14.3 2 Norte 9 Sudeste 0 821.2 -- 44
2020-11-17 12:00:00 13 4 Norte 8 Nordeste 0 821.7 -- 44
2020-11-17 11:00:00 12 5 Norte 10 Norte 0 821.5 -- 45
2020-11-17 10:00:00 10.8 4 Nordeste 12 Norte 0 821.1 -- 45
2020-11-17 09:00:00 8.3 8 Nordeste 12 Nordeste 0 820.7 -- 44
2020-11-17 08:00:00 7.3 6 Nordeste 6 Nordeste 0 820.2 -- 42
2020-11-17 07:00:00 7.5 4 Nordeste 7 Norte 0 820 -- 31
2020-11-17 06:00:00 7.5 3 Norte 12 Sudoeste 0 819.9 -- 36
2020-11-17 05:00:00 8 9 Sur 23 Sur 0 819.7 -- 44
2020-11-17 04:00:00 8.7 11 Sur 19 Sur 0 819.7 -- 43
2020-11-17 03:00:00 8.7 3 Sudoeste 15 Sur 0 819.7 -- 42
2020-11-17 02:00:00 8.2 4 Sudoeste 7 Sudoeste 0 820 -- 35
2020-11-17 01:00:00 8.2 4 Oeste 5 Noroeste 0 820.2 -- 23
2020-11-17 00:00:00 8.2 3 Noroeste 9 Noroeste 0 820.2 -- 18
2020-11-16 23:00:00 8.4 9 Norte 13 Norte 0 820.2 -- 26
2020-11-16 22:00:00 7.1 9 Nordeste 12 Noroeste 0 820.1 -- 20
2020-11-16 21:00:00 6.9 9 Norte 19 Norte 0 819.8 -- 17
2020-11-16 20:00:00 6.4 12 Norte 21 Norte 0 819.6 -- 38
2020-11-16 19:00:00 5.7 12 Norte 20 Norte 0 819.2 -- 70
2020-11-16 18:00:00 6 14 Norte 19 Norte 0 818.8 -- 93
2020-11-16 17:00:00 7.4 7 Norte 19 Noroeste 0 818.7 -- 99
2020-11-16 16:00:00 9 7 Noroeste 18 Noroeste 0 818.5 -- 91
2020-11-16 15:00:00 11.1 7 Sudoeste 13 Oeste 0 818.2 -- 80
2020-11-16 14:00:00 9 3 Noroeste 10 Noroeste 0 818.5 -- 89
2020-11-16 13:00:00 8.6 4 Noroeste 13 Noroeste 0 818.8 -- 91
2020-11-16 12:00:00 9.3 3 Este 12 Nordeste 0 818.5 -- 93
2020-11-16 11:00:00 5.9 8 Norte 17 Noroeste 0.2 818.4 -- 100
2020-11-16 10:00:00 5.2 12 Norte 24 Norte 0 817.8 -- 100
2020-11-16 09:00:00 5.1 15 Norte 32 Norte 0 817.6 -- 100
2020-11-16 08:00:00 5.2 16 Norte 25 Norte 0 817.1 -- 100
2020-11-16 07:00:00 5.5 13 Norte 35 Norte 0 816.8 -- 100
2020-11-16 06:00:00 6.1 20 Norte 40 Norte 0.4 816.9 -- 100
2020-11-16 05:00:00 6.5 15 Norte 35 Noroeste 0 816.5 -- 100
2020-11-16 04:00:00 7 10 Noroeste 33 Noroeste 0.6 816.7 -- 100
2020-11-16 03:00:00 6.9 10 Noroeste 28 Noroeste 0.4 816.7 -- 100
2020-11-16 02:00:00 6.9 10 Oeste 38 Oeste 0 816.8 -- 100
2020-11-16 01:00:00 7.3 19 Oeste 46 Oeste 0.6 817 -- 100
2020-11-16 00:00:00 7.7 10 Oeste 41 Oeste 0 817.2 -- 100
2020-11-15 23:00:00 7.9 15 Oeste 44 Oeste 0 817.1 -- 95
2020-11-15 22:00:00 7.8 17 Oeste 49 Oeste 0 816.8 -- 96
2020-11-15 21:00:00 7.7 14 Oeste 40 Oeste 0 816.4 -- 97
2020-11-15 20:00:00 7.7 17 Oeste 50 Oeste 0 816 -- 97
2020-11-15 19:00:00 8.1 20 Oeste 50 Oeste 0 816.1 -- 93
2020-11-15 18:00:00 8.4 23 Oeste 58 Oeste 0 816 -- 91
2020-11-15 17:00:00 8.8 24 Oeste 53 Oeste 0 815.8 -- 88
2020-11-15 16:00:00 9.2 24 Oeste 62 Oeste 0.2 815.4 -- 91
2020-11-15 15:00:00 9.5 21 Oeste 47 Sudoeste 0 815.4 -- 92
2020-11-15 14:00:00 9.2 19 Oeste 50 Oeste 0 815.5 -- 95
2020-11-15 13:00:00 9.7 26 Oeste 53 Oeste 0 815.7 -- 93
2020-11-15 12:00:00 9.8 29 Oeste 48 Oeste 0 815.9 -- 87
2020-11-15 11:00:00 8.9 24 Oeste 58 Oeste 0 815.9 -- 91
2020-11-15 10:00:00 8.1 25 Oeste 61 Oeste 0 816 -- 95
2020-11-15 09:00:00 7.7 23 Oeste 46 Oeste 0 815.6 -- 97
2020-11-15 08:00:00 7.4 21 Oeste 45 Oeste 0 815.1 -- 96
2020-11-15 07:00:00 7.2 23 Oeste 46 Oeste 0 814.8 -- 96
2020-11-15 06:00:00 7.2 22 Oeste 42 Oeste 0 814.6 -- 98
2020-11-15 05:00:00 7.1 14 Oeste 39 Oeste 0 814.4 -- 98
2020-11-15 04:00:00 6.5 10 Oeste 28 Oeste 0 814.7 -- 100
2020-11-15 03:00:00 6 8 Oeste 24 Oeste 0 814.9 -- 100
2020-11-15 02:00:00 5.6 9 Oeste 30 Oeste 0 815.1 -- 100
2020-11-15 01:00:00 5 15 Sudoeste 25 Sudoeste 0.2 815.3 -- 99
2020-11-15 00:00:00 5.4 5 Oeste 14 Oeste 0 815.4 -- 100
2020-11-14 23:00:00 6.1 6 Oeste 21 Oeste 0 815.6 -- 100
2020-11-14 22:00:00 6.3 12 Oeste 21 Oeste 0 815.4 -- 100
2020-11-14 21:00:00 6.4 9 Sudoeste 14 Oeste 0 815.1 -- 100
2020-11-14 20:00:00 6.6 7 Oeste 19 Oeste 0 815 -- 100
2020-11-14 19:00:00 6.5 9 Oeste 20 Oeste 0 814.5 -- 100
2020-11-14 18:00:00 6.5 7 Oeste 15 Sudoeste 0 814.2 -- 98
2020-11-14 17:00:00 7 6 Sudoeste 19 Sudoeste 0 814 -- 96
2020-11-14 16:00:00 6.7 10 Sudoeste 27 Sudoeste 0 813.8 -- 100
2020-11-14 15:00:00 6.4 16 Sudoeste 29 Sudoeste 0 813.8 -- 100
2020-11-14 14:00:00 6 14 Sudoeste 28 Sudoeste 0 814 -- 100
2020-11-14 13:00:00 5.9 15 Sudoeste 28 Sudoeste 0.6 814.3 -- 100
2020-11-14 12:00:00 5.8 17 Sudoeste 28 Sudoeste 0.6 814.7 -- 100
2020-11-14 11:00:00 5.3 14 Sudoeste 21 Sudoeste 1 814.7 -- 100
2020-11-14 10:00:00 5.3 13 Sur 22 Sur 0 814.6 -- 100
2020-11-14 09:00:00 5.3 11 Sur 35 Sudoeste 0 814.3 -- 100
2020-11-14 08:00:00 5 23 Sur 39 Sudoeste 0 813.6 -- 100
2020-11-14 07:00:00 4.8 19 Sur 38 Sur 0 813.5 -- 100
2020-11-14 06:00:00 4.6 22 Sur 38 Sur 0 813.3 -- 100
2020-11-14 05:00:00 4.9 21 Sudoeste 37 Sudoeste 0 813.3 -- 94
2020-11-14 04:00:00 4 20 Sur 35 Sur 0 813.5 -- 100
2020-11-14 03:00:00 4.1 18 Sur 34 Sur 0 813.9 -- 99
2020-11-14 02:00:00 3.7 17 Sur 41 Sur 0 814 -- 95
2020-11-14 01:00:00 3.5 24 Sur 39 Sur 0 814.5 -- 100
2020-11-14 00:00:00 3.6 19 Sudeste 44 Sur 0 814.6 -- 99
2020-11-13 23:00:00 3.7 26 Sur 47 Sur 0 814.5 -- 100
2020-11-13 22:00:00 3.8 28 Sur 42 Sur 0 814.3 -- 97
2020-11-13 21:00:00 3.6 30 Sur 40 Sur 0 814.3 -- 79
2020-11-13 20:00:00 4.2 22 Sudeste 36 Sur 0 814.3 -- 75
2020-11-13 19:00:00 4.5 22 Sudeste 32 Sur 0 814.1 -- 57
2020-11-13 18:00:00 4.1 17 Sudeste 33 Sur 0 814 -- 96
2020-11-13 17:00:00 7.4 22 Sur 34 Sur 0 813.5 -- 61
2020-11-13 16:00:00 5.7 21 Sur 35 Sur 0 813.6 -- 91
2020-11-13 15:00:00 6.8 12 Sudeste 22 Sur 0 814 -- 88
2020-11-13 14:00:00 8.5 10 Sudeste 23 Sur 0 814.3 -- 78
2020-11-13 13:00:00 10.3 6 Sur 16 Sur 0 814.5 -- 70
2020-11-13 12:00:00 9.2 4 Sudeste 11 Sur 0 814.8 -- 69
2020-11-13 11:00:00 7.3 3 Este 10 Este 0 814.9 -- 50
2020-11-13 10:00:00 6.7 6 Noroeste 10 Noroeste 0 814.8 -- 42
2020-11-13 09:00:00 5.4 2 Norte 8 Noroeste 0 814.3 -- 30
2020-11-13 08:00:00 5.3 3 Oeste 12 Sudeste 0 813.9 -- 35
2020-11-13 07:00:00 4.7 11 Sur 23 Sudeste 0 813.5 -- 44
2020-11-13 06:00:00 4.6 15 Sur 21 Sudeste 0 813.6 -- 40
2020-11-13 05:00:00 4.3 9 Sudeste 31 Sudeste 0 813.6 -- 37
2020-11-13 04:00:00 3.6 23 Sudeste 33 Sudeste 0 813.4 -- 66
2020-11-13 03:00:00 3.2 13 Sudeste 37 Sudeste 0 813.6 -- 89
2020-11-13 02:00:00 3.3 29 Sudeste 39 Sur 0 813.9 -- 90
2020-11-13 01:00:00 4.2 22 Sudeste 41 Sudeste 0 814.4 -- 65
2020-11-13 00:00:00 4.7 23 Sudeste 44 Sudeste 0 814.4 -- 52
2020-11-12 23:00:00 4.3 24 Sudeste 49 Sudeste 0 814.6 -- 63
2020-11-12 22:00:00 4.5 26 Sudeste 49 Sur 0 814.6 -- 50
2020-11-12 21:00:00 4.8 14 Sudeste 48 Sudeste 0 814.7 -- 41
2020-11-12 20:00:00 5.9 21 Sudeste 38 Sudeste 0 814.7 -- 28
2020-11-12 19:00:00 6.6 20 Sudeste 35 Sudeste 0 814.7 -- 32
2020-11-12 18:00:00 6.6 21 Sudeste 31 Sudeste 0 814.6 -- 42
2020-11-12 17:00:00 7.6 12 Sudeste 28 Sudeste 0 814.7 -- 52
2020-11-12 16:00:00 8.6 12 Sudeste 27 Sur 0 814.8 -- 67
2020-11-12 15:00:00 9.7 15 Sur 28 Sur 0 815.1 -- 63
2020-11-12 14:00:00 10.9 11 Sur 26 Sudoeste 0 815.6 -- 60
2020-11-12 13:00:00 10.2 12 Sur 22 Sudeste 0 816 -- 53
2020-11-12 12:00:00 10.5 2 Este -- -- -- 816.7 -- 44
2020-11-12 11:00:00 -- -- -- -- -- -- -- -- --
2020-11-12 10:00:00 6.8 18 Sur 24 Sur 0 816.9 -- 38
2020-11-12 09:00:00 5.8 16 Sudeste 22 Sudeste 0 816.6 -- 37
2020-11-12 08:00:00 5.6 8 Sudoeste 14 Sur 0 816.3 -- 30
2020-11-12 07:00:00 4.5 4 Nordeste 9 Norte 0 816.1 -- 56
2020-11-12 06:00:00 5.2 7 Noroeste 9 Noroeste 0 816.2 -- 51
2020-11-12 05:00:00 5.1 2 Nordeste 11 Oeste 0 816.2 -- 50
2020-11-12 04:00:00 5.2 4 Noroeste 10 Noroeste 0 816.5 -- 48
2020-11-12 03:00:00 5.5 6 Noroeste 14 Noroeste 0 817 -- 46
2020-11-12 02:00:00 5.5 4 Este 11 Norte 0 817.1 -- 27
2020-11-12 01:00:00 5.5 7 Norte 13 Norte 0 817.5 -- 46
2020-11-12 00:00:00 5.4 6 Nordeste 10 Noroeste 0 817.3 -- 42
2020-11-11 23:00:00 5.3 3 Norte 15 Sur 0 817.4 -- 36
2020-11-11 22:00:00 4.7 10 Sudoeste 18 Este 0 817.3 -- 50
2020-11-11 21:00:00 5.3 9 Noroeste 14 Noroeste 0 817.2 -- 50
2020-11-11 20:00:00 4.8 6 Este 13 Norte 0 817 -- 50
2020-11-11 19:00:00 5.3 6 Norte 12 Noroeste 0 817 -- 50
2020-11-11 18:00:00 5 8 Nordeste 17 Noroeste 0 816.7 -- 98
2020-11-11 17:00:00 6.8 6 Noroeste 14 Oeste 0 816.9 -- 71
2020-11-11 16:00:00 9.3 4 Oeste 19 Sudoeste 0 816.7 -- 68
2020-11-11 15:00:00 9.4 9 Sur 24 Sur 0 816.6 -- 64
2020-11-11 14:00:00 9 12 Sudoeste 33 Sur 0 816.9 -- 61
2020-11-11 13:00:00 8.4 13 Sur 47 Sur 0 817.1 -- 74
2020-11-11 12:00:00 7.4 19 Sur 44 Sur 0 817.3 -- 79
2020-11-11 11:00:00 6.8 18 Sur 42 Sur 0 817.7 -- 80
2020-11-11 10:00:00 4.9 25 Sur 45 Sur 0 817.5 -- 90
2020-11-11 09:00:00 2.7 25 Sur 40 Sur 0 817.4 -- 99
2020-11-11 08:00:00 2.1 22 Sur 44 Sur 0 817.4 -- 100
2020-11-11 07:00:00 2.3 26 Sur 45 Sur 0 817.3 -- 99
2020-11-11 06:00:00 2.4 26 Sur 45 Sur 0 817.6 -- 94
2020-11-11 05:00:00 2.6 26 Sur 40 Sur 0 817.7 -- 93
2020-11-11 04:00:00 2.8 25 Sudeste 43 Sur 0 818 -- 82
2020-11-11 03:00:00 2.7 25 Sudeste 40 Sur 0 818.7 -- 94
2020-11-11 02:00:00 2.5 24 Sur 39 Sur 0 819 -- 100
2020-11-11 01:00:00 3 9 Sudeste 21 Sur 0 819.4 -- 98
2020-11-11 00:00:00 3.1 9 Sur 29 Sur 0 819.3 -- 96
2020-11-10 23:00:00 3.3 13 Sudeste 23 Sur 0 819.4 -- 93
2020-11-10 22:00:00 3.9 5 Sur 14 Sur 0 819.5 -- 85
2020-11-10 21:00:00 3.6 10 Sudeste 19 Sur 0 819.3 -- 85
2020-11-10 20:00:00 3.7 3 Este 21 Sur 0 819.3 -- 91
2020-11-10 19:00:00 4.3 5 Sudeste 11 Sudeste 0 819.1 -- 99
2020-11-10 18:00:00 5.2 6 Noroeste 11 Norte 0 819.6 -- 100
2020-11-10 17:00:00 6.6 4 Oeste 12 Noroeste 0 819.3 -- 91
2020-11-10 16:00:00 8.3 3 Oeste 13 Oeste 0 819.1 -- 79
2020-11-10 15:00:00 8.7 4 Oeste 10 Sudoeste 0 819.1 -- 77
2020-11-10 14:00:00 6.4 2 Nordeste 14 Noroeste 0 819.5 -- 90
2020-11-10 13:00:00 6.3 6 Noroeste 18 Oeste 0 819.7 -- 91
2020-11-10 12:00:00 6.6 8 Oeste 13 Oeste 0 819.9 -- 82
2020-11-10 11:00:00 6.5 4 Oeste 9 Oeste 0 819.6 -- 85
2020-11-10 10:00:00 4.7 5 Sudoeste 12 Norte 0 819.4 -- 89
2020-11-10 09:00:00 3 7 Noroeste 14 Norte 0 819 -- 98
2020-11-10 08:00:00 2.5 9 Norte 13 Norte 0 818.4 -- 95
2020-11-10 07:00:00 1.9 3 Noroeste 10 Oeste 0 818.1 -- 100
2020-11-10 06:00:00 2.4 3 Nordeste 14 Norte 0 818.1 -- 100
2020-11-10 05:00:00 2.1 4 Nordeste 9 Norte 0 817.8 -- 100
2020-11-10 04:00:00 2.3 6 Norte 14 Norte 0 817.9 -- 100
2020-11-10 03:00:00 2.8 6 Norte 13 Noroeste 0 818 -- 100
2020-11-10 02:00:00 2.9 6 Norte 15 Norte 0 818 -- 100
2020-11-10 01:00:00 2.6 9 Norte 16 Norte 0 818.1 -- 100
2020-11-10 00:00:00 2.6 6 Nordeste 14 Norte 0 818 -- 100
2020-11-09 23:00:00 2.4 5 Nordeste 13 Norte 0 818.1 -- 100
2020-11-09 22:00:00 2.7 10 Norte 17 Norte 0 817.8 -- 100
2020-11-09 21:00:00 3.3 6 Norte 16 Norte 0 817.7 -- 100
2020-11-09 20:00:00 3.5 8 Norte 17 Norte 0 817.5 -- 100
2020-11-09 19:00:00 4 8 Norte 14 Norte 0 817.2 -- 100
2020-11-09 18:00:00 4.3 6 Noroeste 17 Norte 0 816.7 -- 100
2020-11-09 17:00:00 4.7 5 Norte 15 Norte 0 816.4 -- 100
2020-11-09 16:00:00 5.2 4 Norte 19 Noroeste 0 816 -- 98
2020-11-09 15:00:00 5.6 6 Norte 18 Noroeste 0 815.8 -- 97
2020-11-09 14:00:00 5.2 6 Noroeste 15 Sudoeste 0 815.8 -- 100
2020-11-09 13:00:00 6.7 6 Sur 17 Sur 0 815.8 -- 93
2020-11-09 12:00:00 6.5 8 Sudoeste 23 Sur 0 816.2 -- 89
2020-11-09 11:00:00 4.7 10 Sudoeste 21 Sudoeste 0 816.1 -- 100
2020-11-09 10:00:00 3.8 11 Sudoeste 21 Sudoeste 0 815.8 -- 100
2020-11-09 09:00:00 3 6 Sudoeste 15 Sur 0 815.4 -- 100
2020-11-09 08:00:00 2.7 8 Sudoeste 19 Sudoeste 0 814.6 -- 100
2020-11-09 07:00:00 3.2 11 Oeste 24 Sudoeste 0 814.3 -- 100
2020-11-09 06:00:00 3.1 17 Sudoeste 37 Oeste 0.8 813.8 -- 100
2020-11-09 05:00:00 3.3 18 Oeste 40 Oeste 1.6 814.6 -- 100
2020-11-09 04:00:00 4.3 14 Sur 32 Sudoeste 0.8 814.2 -- 100
2020-11-09 03:00:00 4.3 17 Sudoeste 36 Sudoeste 0.4 814.3 -- 100
2020-11-09 02:00:00 4 22 Sur 43 Sudoeste 0.2 814.4 -- 100
2020-11-09 01:00:00 4 26 Sur 51 Sur 0.2 814.7 -- 100
2020-11-09 00:00:00 4 28 Sur 49 Sudoeste 0.2 814.6 -- 100
2020-11-08 23:00:00 3.9 23 Sur 44 Sur 0 815 -- 100
2020-11-08 22:00:00 3.9 27 Sur 48 Sur 0 815 -- 100
2020-11-08 21:00:00 4 26 Sur 44 Sur 0 815 -- 100
2020-11-08 20:00:00 3.9 24 Sur 50 Sur 0 815.1 -- 100
2020-11-08 19:00:00 3.9 28 Sur 49 Sur 0 814.8 -- 100
2020-11-08 18:00:00 3.8 19 Sur 41 Sur 0 814.7 -- 100
2020-11-08 17:00:00 4 22 Sur 42 Sur 0 814.5 -- 100
2020-11-08 16:00:00 4.3 23 Sur 53 Sur 0 814.7 -- 100
2020-11-08 15:00:00 4.6 26 Sur 59 Sur 0 814 -- 100
2020-11-08 14:00:00 3.9 34 Sur 55 Sur 0 814.5 -- 100
2020-11-08 13:00:00 3.5 30 Sur 50 Sur 0 815.3 -- 100
2020-11-08 12:00:00 4.2 29 Sur 50 Sur 0 815.6 -- 100
2020-11-08 11:00:00 3.6 31 Sur 53 Sur 0 815.7 -- 100
2020-11-08 10:00:00 3.2 27 Sur 48 Sur 0 815.9 -- 100
2020-11-08 09:00:00 2.9 33 Sur 50 Sur 0 815.4 -- 100
2020-11-08 08:00:00 3.1 27 Sur 60 Sur 0 814.9 -- 100
2020-11-08 07:00:00 3.2 28 Sur 43 Sur 0 815 -- 100
2020-11-08 06:00:00 3.3 18 Sur 36 Sur 0.2 815.4 -- 100
2020-11-08 05:00:00 3.2 17 Sur 39 Sudoeste 0 815.4 -- 100
2020-11-08 04:00:00 3.2 25 Sudoeste 48 Sur 0 815.5 -- 100
2020-11-08 03:00:00 2.8 26 Sur 47 Sur 0 815.5 -- 100
2020-11-08 02:00:00 2.3 19 Sur 33 Sur 0 815.6 -- 100
2020-11-08 01:00:00 2.2 19 Sur 31 Sur 0 815.7 -- 100
2020-11-08 00:00:00 2.2 19 Sur 31 Sur 0 815.6 -- 100
2020-11-07 23:00:00 2.2 19 Sudeste 33 Sur 0 815.5 -- 100
2020-11-07 22:00:00 2.7 22 Sur 30 Sur 0 815.4 -- 100
2020-11-07 21:00:00 3.3 10 Sur 26 Sur 0 815.1 -- 100
2020-11-07 20:00:00 4.3 10 Sur 23 Sur 0 815.1 -- 100
2020-11-07 19:00:00 4.7 11 Sudoeste 21 Sudoeste 0.2 814.7 -- 100
2020-11-07 18:00:00 4.8 5 Sudoeste 24 Sur 1.2 814.1 -- 100
2020-11-07 17:00:00 5 5 Sur 25 Sudoeste 1.4 813.7 -- 100
2020-11-07 16:00:00 5.2 10 Oeste 21 Sudoeste 0.8 813.3 -- 100
2020-11-07 15:00:00 4.8 12 Oeste 31 Oeste 0.4 812.7 -- 100
2020-11-07 14:00:00 4.4 12 Sudoeste 33 Sudoeste 1 812.3 -- 100
2020-11-07 13:00:00 4.2 15 Sudoeste 32 Sur 2.4 811.9 -- 100
2020-11-07 12:00:00 4 18 Sudoeste 33 Sur 1.6 811.6 -- 100
2020-11-07 11:00:00 4 18 Sudoeste 44 Sudoeste 1 810.8 -- 100
2020-11-07 10:00:00 3.9 27 Sudoeste 48 Sur 1.6 810.1 -- 100
2020-11-07 09:00:00 3.7 23 Sudoeste 50 Sur 2.6 809 -- 100
2020-11-07 08:00:00 3.9 22 Sur 54 Sudeste 0.6 808.5 -- 100
2020-11-07 07:00:00 4.5 27 Sur 61 Sudeste 0.6 808.1 -- 100
2020-11-07 06:00:00 4.5 32 Sur 61 Sur 0.2 808.1 -- 100
2020-11-07 05:00:00 4.3 37 Sur 75 Sur 0 807.5 -- 100
2020-11-07 04:00:00 4.4 29 Sudeste 83 Sur 1.8 807.4 -- 100
2020-11-07 03:00:00 4.6 33 Sur 75 Sudoeste 3.8 808.7 -- 100
2020-11-07 02:00:00 4.3 30 Sudoeste 88 Sudoeste 3.8 809.3 -- 100
2020-11-07 01:00:00 5.2 31 Sur 91 Sudoeste 7.2 810.1 -- 100
2020-11-07 00:00:00 6.5 44 Sur 94 Sur 1.8 810.4 -- 100
2020-11-06 23:00:00 6.7 45 Sudeste 99 Sur 0.4 809.9 -- 100
2020-11-06 22:00:00 7.1 42 Sudeste 104 Sudeste 1 810.3 -- 100
2020-11-06 21:00:00 7.4 44 Sudeste 113 Sur 5 809.7 -- 100
2020-11-06 20:00:00 7.3 51 Sudeste 98 Sur 3.6 810.1 -- 100
2020-11-06 19:00:00 7.7 33 Sudeste 84 Sudeste 0 809.2 -- 97
2020-11-06 18:00:00 7.4 29 Sudeste 81 Sudeste 0.6 809.4 -- 100
2020-11-06 17:00:00 7.8 23 Sudeste 64 Sur 0 810.1 -- 100
2020-11-06 16:00:00 7.9 21 Este 64 Sudeste 0 810.4 -- 100
2020-11-06 15:00:00 7.9 20 Sudeste 79 Sur 0 810.6 -- 100
2020-11-06 14:00:00 7.7 20 Sudeste 68 Sudeste 0 810.6 -- 100
2020-11-06 13:00:00 7.5 23 Sudeste 90 Sudeste 0 811.3 -- 100
2020-11-06 12:00:00 7.5 31 Sudeste 80 Sudeste 0 811.5 -- 98
2020-11-06 11:00:00 8 25 Sudeste 84 Este 0 811.8 -0.4 89
2020-11-06 10:00:00 6.6 33 Este 84 Sudeste 0 811.7 -- 100
2020-11-06 09:00:00 5.8 36 Este 81 Sudeste 0 811.7 -- 100
2020-11-06 08:00:00 5.2 27 Este 51 Este 0 812.2 -- 100
2020-11-06 07:00:00 4.9 18 Sudeste 47 Sudeste 0 813 -- 100
2020-11-06 06:00:00 5 20 Sudeste 54 Sur 0 813.4 -- 100
2020-11-06 05:00:00 5 26 Sudeste 62 Sur 0 813.5 -- 100
2020-11-06 04:00:00 5 19 Sudeste 51 Sudeste 0 813.1 -- 100
2020-11-06 03:00:00 5.2 16 Sudeste 52 Este 0 813.1 -- 100
2020-11-06 02:00:00 5.3 21 Este 53 Sur 0 812.9 -- 100
2020-11-06 01:00:00 5.4 31 Sudeste 71 Sudeste 0.2 813.1 -- 100
2020-11-06 00:00:00 5.4 37 Sudeste 72 Sudeste 0 813.1 -- 100
2020-11-05 23:00:00 5.4 40 Sur 81 Sur 0 812.8 -- 100
2020-11-05 22:00:00 5.3 39 Sudeste 84 Sudeste 0.4 812.2 -- 100
2020-11-05 21:00:00 4.6 18 Sudeste 95 Sudeste 0 812.2 -- 100
2020-11-05 20:00:00 4.5 44 Este 100 Sudeste 2.8 811 -- 100
2020-11-05 19:00:00 4.6 39 Sudeste 88 Este 5.8 811.7 -- 100
2020-11-05 18:00:00 4.1 40 Este 90 Este 9 812 -- 100
2020-11-05 17:00:00 4.2 26 Sudeste 64 Sudeste 6.6 812.1 -- 100
2020-11-05 16:00:00 4.3 26 Sudeste 76 Sudeste 3.4 811.9 -- 100
2020-11-05 15:00:00 5.1 26 Sudeste 95 Sudeste 2 811.7 -- 100
2020-11-05 14:00:00 5.2 27 Sudeste 76 Este 0.6 811.9 -- 100
2020-11-05 13:00:00 5 22 Sudeste 89 Sudeste 0.2 812.3 -- 100
2020-11-05 12:00:00 5 31 Este 78 Este 0.6 812.4 -- 100
2020-11-05 11:00:00 4.8 26 Sudeste 100 Sudeste 0.4 812.4 -- 100
2020-11-05 10:00:00 4.9 50 Sudeste 118 Sudeste 1.8 812.1 -- 100
2020-11-05 09:00:00 3.8 41 Este 101 Sudeste 1.2 811.6 -- 100
2020-11-05 08:00:00 4.2 34 Este 87 Sudeste 0 811.6 -- 100
2020-11-05 07:00:00 3.2 47 Este 90 Este 0 810.9 -- 100
2020-11-05 06:00:00 2.9 50 Este 84 Este 0 810.7 -- 100
2020-11-05 05:00:00 2.9 36 Este 87 Sudeste 0 811.4 -- 100
2020-11-05 04:00:00 3 41 Este 77 Este 0 811.2 -- 100
2020-11-05 03:00:00 3.1 35 Este 83 Sudeste 0.2 811.2 -- 100
2020-11-05 02:00:00 3 26 Este 64 Este 0 811.5 -- 100
2020-11-05 01:00:00 2.7 23 Este 69 Este 2 811.9 -- 100
2020-11-05 00:00:00 2.5 24 Este 60 Sudeste 1.8 812.1 -- 100
2020-11-04 23:00:00 2.4 28 Este 66 Este 2.2 811.7 -- 100
2020-11-04 22:00:00 2.4 30 Este 62 Este 1 811.1 -- 100
2020-11-04 21:00:00 2.3 35 Este 56 Este 0.6 810.9 -- 100
2020-11-04 20:00:00 2.4 30 Este 51 Este 0.2 810.6 -- 100
2020-11-04 19:00:00 2.4 24 Este 57 Este 0 810.1 -- 100
2020-11-04 18:00:00 2.6 26 Este 57 Este 0.2 809.5 -- 100
2020-11-04 17:00:00 2.7 24 Este 58 Este 1.6 809.5 -- 100
2020-11-04 16:00:00 2.4 16 Este 45 Este 0.4 809.9 -- 100
2020-11-04 15:00:00 3 17 Este 44 Este 0 809.9 -- 100
2020-11-04 14:00:00 2.5 13 Nordeste 30 Nordeste 0.6 810.8 -- 100
2020-11-04 13:00:00 3.8 8 Nordeste 21 Nordeste 0 811.3 -- 100
2020-11-04 12:00:00 3 5 Este 18 Este 0.2 811.9 -- 100
2020-11-04 11:00:00 2.6 3 Sudeste 12 Nordeste 0.2 812.3 -0.1 100
2020-11-04 10:00:00 1.9 2 Sudoeste 10 Nordeste 0 812.4 -- 100
2020-11-04 09:00:00 1.3 3 Este 20 Norte 0 812.3 -- 100
2020-11-04 08:00:00 1 4 Este 7 Este 0 812.4 -- 100
2020-11-04 07:00:00 1 2 Norte 9 Noroeste 0 812.8 -- 100
2020-11-04 06:00:00 1 5 Nordeste 11 Este 0 813.2 -- 100
2020-11-04 05:00:00 2 5 Norte 13 Norte 0 813.8 -- 100
2020-11-04 04:00:00 2.3 5 Norte 10 Noroeste 0 814.5 -- 100
2020-11-04 03:00:00 2.8 7 Oeste 15 Oeste 0 815.2 -- 100
2020-11-04 02:00:00 2.7 8 Sudoeste 14 Sudoeste 0.2 815.7 -- 100
2020-11-04 01:00:00 3.1 4 Oeste 9 Oeste 0 816.7 -- 100
2020-11-04 00:00:00 3 5 Oeste 12 Este 0 817.4 -- 100
2020-11-03 23:00:00 3.5 3 Nordeste 8 Norte 0.2 817.9 -- 100
2020-11-03 22:00:00 3.8 5 Sudoeste 12 Sur 0 818.2 -- 100
2020-11-03 21:00:00 3.8 0 Calma 10 Norte 0.2 818.6 -- 100
2020-11-03 20:00:00 3.9 4 Norte 12 Norte 0.2 818.8 -- 100
2020-11-03 19:00:00 4 8 Norte 17 Nordeste 0.4 819 -- 100
2020-11-03 18:00:00 4.5 7 Norte 16 Norte 0.2 818.9 -- 100
2020-11-03 17:00:00 4.7 8 Norte 17 Norte 0.2 818.8 -- 100
2020-11-03 16:00:00 5.6 5 Noroeste 15 Norte 0 818.9 -- 100
2020-11-03 15:00:00 5.7 8 Noroeste 14 Noroeste 0 819 -- 100
2020-11-03 14:00:00 5.3 6 Noroeste 12 Norte 0 819.3 -- 100
2020-11-03 13:00:00 5.9 4 Nordeste 16 Norte 0 819.3 -- 100
2020-11-03 12:00:00 6.9 8 Noroeste 14 Oeste 0 819.6 -- 100
2020-11-03 11:00:00 6.5 4 Noroeste 14 Norte 0.2 819.4 -- 100
2020-11-03 10:00:00 6.9 2 Norte 19 Norte 0 819.3 -- 100
2020-11-03 09:00:00 7.1 7 Norte 22 Norte 0 818.9 -- 100
2020-11-03 08:00:00 7.1 13 Norte 22 Norte 0.8 818.7 -- 100
2020-11-03 07:00:00 8 8 Norte 16 Norte 0 818.4 -- 100
2020-11-03 06:00:00 7.9 6 Norte 13 Norte 0 818.5 -- 100
2020-11-03 05:00:00 7.4 5 Norte 10 Nordeste 0 818.3 -- 100
2020-11-03 04:00:00 7.6 6 Norte 15 Noroeste 0 818.6 -- 100
2020-11-03 03:00:00 7.7 6 Norte 13 Norte 0 818.8 -- 100
2020-11-03 02:00:00 7.7 6 Norte 12 Noroeste 0 818.7 -- 98
2020-11-03 01:00:00 8.1 7 Noroeste 10 Noroeste 0 818.7 -- 89
2020-11-03 00:00:00 8.1 5 Noroeste 14 Nordeste 0 818.9 -- 92
2020-11-02 23:00:00 8.4 9 Nordeste 13 Nordeste 0 819.1 -- 88
2020-11-02 22:00:00 9 4 Norte 10 Oeste 0 819.2 -- 78
2020-11-02 21:00:00 8.5 5 Norte 11 Norte 0 819.3 -- 93
2020-11-02 20:00:00 8.7 5 Norte 13 Norte 0 819.2 -- 97
2020-11-02 19:00:00 9.7 6 Norte 15 Nordeste 0 818.8 -- 77
2020-11-02 18:00:00 10.1 9 Nordeste 12 Nordeste 0 818.5 -- 82
2020-11-02 17:00:00 12.2 4 Nordeste 9 Este 0 818.4 -- 80
2020-11-02 16:00:00 13.4 2 Noroeste 11 Noroeste 0 818.3 -- 80
2020-11-02 15:00:00 13.6 2 Este 9 Sudoeste 0 818.4 -- 77
2020-11-02 14:00:00 14.2 3 Este 9 Oeste 0 818.8 -- 72
2020-11-02 13:00:00 12.9 3 Este 12 Este 0 819.2 -- 73
2020-11-02 12:00:00 14.2 3 Norte 9 Norte 0 819.7 -- 70
2020-11-02 11:00:00 14.8 2 Noroeste 14 Oeste 0 819.5 -- 62
2020-11-02 10:00:00 12.8 4 Oeste 16 Oeste 0 819.3 -- 65
2020-11-02 09:00:00 10.6 7 Oeste 22 Oeste 0 818.8 -- 76
2020-11-02 08:00:00 9.8 11 Oeste 21 Oeste 0 818.5 -- 77
2020-11-02 07:00:00 9.8 6 Oeste 18 Oeste 0 818.4 -- 73
2020-11-02 06:00:00 10.2 11 Oeste 16 Oeste 0 818.5 -- 67
2020-11-02 05:00:00 10.6 6 Sudoeste 13 Sudoeste 0 818.4 -- 67
2020-11-02 04:00:00 10.2 6 Sudeste 15 Sudoeste 0 818.7 -- 53
2020-11-02 03:00:00 10.1 10 Sur 20 Sudoeste 0 818.9 -- 61
2020-11-02 02:00:00 9.9 11 Sur 24 Sudoeste 0 819.1 -- 63
2020-11-02 01:00:00 10.1 15 Sur 25 Sudoeste 0 819.4 -- 67
2020-11-02 00:00:00 10.5 4 Nordeste 10 Norte 0 819.7 -- 65
2020-11-01 23:00:00 10.9 5 Sudoeste 17 Oeste 0 820 -- 64
2020-11-01 22:00:00 10.6 8 Oeste 15 Sudoeste 0 819.9 -- 73
2020-11-01 21:00:00 10.6 6 Sudoeste 12 Sudoeste 0 819.9 -- 68
2020-11-01 20:00:00 10.7 6 Oeste 17 Oeste 0 819.9 -- 63
2020-11-01 19:00:00 10.3 7 Oeste 14 Oeste 0 819.8 -- 65
2020-11-01 18:00:00 10.7 7 Este 9 Norte 0 819.8 -- 61
2020-11-01 17:00:00 12.6 3 Norte 17 Noroeste 0 820 -- 58
2020-11-01 16:00:00 14.3 6 Noroeste 15 Noroeste 0 820.1 -- 55
2020-11-01 15:00:00 14.2 3 Este 7 Este 0 820.1 -- 52
2020-11-01 14:00:00 14.4 3 Sudeste 10 Noroeste 0 820.3 -- 47
2020-11-01 13:00:00 14 5 Norte 17 Noroeste 0 820.9 -- 45
2020-11-01 12:00:00 14.1 5 Norte 14 Norte 0 821 -- 43
2020-11-01 11:00:00 13.6 5 Noroeste 12 Norte 0 821.2 -- 36
2020-11-01 10:00:00 12 8 Norte 12 Norte 0 821.1 -- 33
2020-11-01 09:00:00 9.6 5 Noroeste 13 Norte 0 820.5 -- 42
2020-11-01 08:00:00 8.3 9 Noroeste 18 Noroeste 0 820.2 -- 48
2020-11-01 07:00:00 8.7 9 Norte 13 Oeste 0 820.2 -- 59
2020-11-01 06:00:00 8.5 8 Oeste 23 Oeste 0 819.9 -- 57
2020-11-01 05:00:00 8.7 10 Sudoeste 19 Sudoeste 0 820.1 -- 53
2020-11-01 04:00:00 8.3 8 Sur 21 Sudoeste 0 820.1 -- 78
2020-11-01 03:00:00 8.5 12 Sudoeste 22 Sudoeste 0 820.6 -- 74
2020-11-01 02:00:00 8.6 14 Sudoeste 25 Sudoeste 0 821 -- 63
2020-11-01 01:00:00 8.4 10 Oeste 23 Sudoeste 0 821.3 -- 74
2020-11-01 00:00:00 8.6 9 Oeste 21 Sudoeste 0 821.3 -- 70
2020-10-31 23:00:00 8.9 13 Sudoeste 25 Sudoeste 0 821.1 -- 64
2020-10-31 22:00:00 8.9 8 Oeste 19 Oeste 0 820.9 -- 58
2020-10-31 21:00:00 9.1 2 Este 11 Oeste 0 821 -- 71
2020-10-31 20:00:00 9.4 11 Oeste 18 Oeste 0 821 -- 70
2020-10-31 19:00:00 9.1 6 Este 11 Este 0 820.8 -- 78
2020-10-31 18:00:00 11.2 5 Noroeste 9 Noroeste 0 820.6 -- 71
2020-10-31 17:00:00 12.4 5 Noroeste 16 Noroeste 0 820.4 -- 65
2020-10-31 16:00:00 11.8 7 Norte 24 Noroeste 0 820.6 -- 69
2020-10-31 15:00:00 14.7 4 Sudeste 24 Noroeste 0 820.4 -- 53
2020-10-31 14:00:00 15.4 4 Sudoeste 16 Noroeste 0 820.8 -- 49
2020-10-31 13:00:00 15.7 5 Oeste 21 Sur 0 821.1 -- 41
2020-10-31 12:00:00 13.4 4 Noroeste 13 Nordeste 0 821.5 -- 52
2020-10-31 11:00:00 12.4 3 Noroeste 12 Nordeste 0 821.9 -- 54
2020-10-31 10:00:00 11.4 8 Norte 16 Noroeste 0 821.7 -- 51
2020-10-31 09:00:00 9 10 Oeste 17 Oeste 0 821.1 -- 56
2020-10-31 08:00:00 8.3 6 Oeste 12 Noroeste 0 820.7 -- 58
2020-10-31 07:00:00 7.5 5 Este 8 Este 0 820.5 -- 72
2020-10-31 06:00:00 7.9 7 Oeste 21 Oeste 0 820.4 -- 72
2020-10-31 05:00:00 8 10 Sudoeste 24 Sudoeste 0 820.3 -- 69
2020-10-31 04:00:00 8.7 16 Sudoeste 24 Sudoeste 0 820.3 -- 57
2020-10-31 03:00:00 9 14 Sudoeste 26 Oeste 0 820.7 -- 59
2020-10-31 02:00:00 8.6 13 Sudoeste 23 Sudoeste 0 820.9 -- 63
2020-10-31 01:00:00 9.1 17 Sudoeste 27 Sudoeste 0 820.8 -- 58
2020-10-31 00:00:00 9.2 5 Sur 15 Sudoeste 0 821.1 -- 64
2020-10-30 23:00:00 9.2 4 Norte 21 Sur 0 821.2 -- 62
2020-10-30 22:00:00 9.2 3 Sur 24 Sur 0 821.1 -- 61
2020-10-30 21:00:00 9.4 5 Sur 14 Sur 0 821 -- 57
2020-10-30 20:00:00 10 6 Sudoeste 14 Sudoeste 0 820.9 -- 45
2020-10-30 19:00:00 10.5 4 Sudoeste 8 Sudoeste 0 820.7 -- 56
2020-10-30 18:00:00 10.9 3 Norte 9 Noroeste 0 820.5 -- 71
2020-10-30 17:00:00 13.2 3 Noroeste 9 Oeste 0 820.6 -- 64
2020-10-30 16:00:00 14.4 2 Sudeste 11 Noroeste 0 820.7 -- 61
2020-10-30 15:00:00 15.3 2 Nordeste 12 Oeste 0 820.8 -- 58
2020-10-30 14:00:00 15.3 2 Nordeste 8 Oeste 0 820.9 -- 55
2020-10-30 13:00:00 15.6 3 Este 9 Sudoeste 0 821.2 -- 51
2020-10-30 12:00:00 16.3 2 Oeste 18 Sur 0 821.5 -- 38
2020-10-30 11:00:00 15.2 8 Sur 18 Sur 0 821.4 -- 24
2020-10-30 10:00:00 13.3 8 Sur 17 Sudeste 0 821.2 -- 47
2020-10-30 09:00:00 9.7 9 Sur 14 Sur 0 820.9 -- 27
2020-10-30 08:00:00 7.2 8 Sur 12 Sur 0 820.5 -- 21
2020-10-30 07:00:00 7.3 0 Calma 6 Oeste 0 820.6 -- 37
2020-10-30 06:00:00 9.7 6 Sudoeste 17 Sudoeste 0 820.6 -- 17
2020-10-30 05:00:00 9.8 11 Sudoeste 18 Sur 0 820.5 -- 16
2020-10-30 04:00:00 10 14 Sur 26 Sur 0 820.5 -- 20
2020-10-30 03:00:00 10 16 Sudoeste 24 Sudoeste 0 820.7 -- 21
2020-10-30 02:00:00 9.5 15 Sur 26 Sudoeste 0 820.8 -- 23
2020-10-30 01:00:00 9.2 14 Sudoeste 25 Sur 0 820.9 -- 25
2020-10-30 00:00:00 9.2 18 Sur 28 Sur 0 821 -- 25
2020-10-29 23:00:00 8.4 17 Sur 27 Sur 0 821.1 -- 27
2020-10-29 22:00:00 8.7 15 Sur 28 Sur 0 821.1 -- 26
2020-10-29 21:00:00 8.9 14 Sur 24 Sur 0 820.9 -- 25
2020-10-29 20:00:00 10.2 15 Sur 24 Sur 0 820.9 -- 21
2020-10-29 19:00:00 11.7 5 Sur 12 Sur 0 820.8 -- 13
2020-10-29 18:00:00 13.6 4 Sur 8 Sudoeste 0 820.4 -- 18
2020-10-29 17:00:00 15.1 3 Sudoeste 10 Sudoeste 0 820.4 -- 58
2020-10-29 16:00:00 15.8 8 Sudoeste 19 Sudoeste 0 820.3 -- 35
2020-10-29 15:00:00 15.7 8 Sudoeste 22 Sudoeste 0 820.2 -- 25
2020-10-29 14:00:00 15.3 13 Sur 23 Sur 0 820.4 -- 18
2020-10-29 13:00:00 15.9 9 Sur 21 Sur 0 820.7 -- 22
2020-10-29 12:00:00 15.9 6 Sur 16 Sur 0 820.7 -- 42
2020-10-29 11:00:00 14.5 10 Sur 24 Sur 0 820.6 -- 30
2020-10-29 10:00:00 13.5 5 Sudeste 14 Sur 0 820.3 -- 29
2020-10-29 09:00:00 10.5 6 Norte 11 Norte 0 820.2 -- 19
2020-10-29 08:00:00 9.2 10 Norte 14 Norte 0 819.5 -- 18
2020-10-29 07:00:00 9.1 5 Nordeste 15 Oeste 0 819.3 -- 20
2020-10-29 06:00:00 8.9 11 Oeste 14 Oeste 0 818.9 -- 22
2020-10-29 05:00:00 8.3 9 Oeste 12 Oeste 0 818.6 -- 23
2020-10-29 04:00:00 7.8 5 Oeste 7 Oeste 0 818.5 -- 22
2020-10-29 03:00:00 6.6 0 Calma 3 Norte 0 818.8 -- 38
2020-10-29 02:00:00 7.1 0 Calma 4 Oeste 0 818.7 -- 29
2020-10-29 01:00:00 6 3 Oeste 5 Noroeste 0 818.7 -- 56
2020-10-29 00:00:00 5.3 3 Norte 10 Sur 0 818.7 -- 68
2020-10-28 23:00:00 4 3 Sudeste 8 Norte 0 818.4 -- 81
2020-10-28 22:00:00 4.9 4 Norte 14 Norte 0 818.4 -- 100
2020-10-28 21:00:00 5.3 8 Norte 21 Norte 0 818.4 -- 100
2020-10-28 20:00:00 5.6 8 Norte 19 Norte 0 818.4 -- 100
2020-10-28 19:00:00 6.5 9 Norte 24 Norte 0 817.9 -- 100
2020-10-28 18:00:00 7.2 13 Norte 29 Norte 0 817.4 -- 100
2020-10-28 17:00:00 8 8 Noroeste 20 Noroeste 0 817.2 -- 100
2020-10-28 16:00:00 9 3 Oeste 19 Oeste 0 816.8 -- 100
2020-10-28 15:00:00 8.9 9 Noroeste 21 Noroeste 0 816.8 -- 100
2020-10-28 14:00:00 9 9 Oeste 24 Noroeste 0.6 816.9 -- 100
2020-10-28 13:00:00 8.6 9 Noroeste 21 Noroeste 0.4 817 -- 100
2020-10-28 12:00:00 8.1 7 Noroeste 36 Noroeste 0.6 817.1 -- 100
2020-10-28 11:00:00 7.8 12 Noroeste 30 Oeste 0.2 816.7 -- 100
2020-10-28 10:00:00 7.4 9 Norte 22 Norte 0.8 816.2 -- 100
2020-10-28 09:00:00 6.9 9 Norte 30 Noroeste 0.6 815.7 -- 100
2020-10-28 08:00:00 6.7 12 Norte 24 Norte 2 815 -- 100
2020-10-28 07:00:00 6.7 12 Noroeste 30 Noroeste 2.2 814.8 -- 100
2020-10-28 06:00:00 6.9 10 Noroeste 28 Noroeste 1.4 814.5 -- 100
2020-10-28 05:00:00 6.8 8 Noroeste 27 Norte 0.6 814.1 -- 100
2020-10-28 04:00:00 6.1 8 Noroeste 25 Noroeste 0.4 814.1 -- 100
2020-10-28 03:00:00 5.8 11 Noroeste 23 Noroeste 0 814.1 -- 100
2020-10-28 02:00:00 5.6 10 Noroeste 25 Oeste 0.2 814.3 -- 100
2020-10-28 01:00:00 5.3 10 Noroeste 27 Noroeste 0 814.3 -- 100
2020-10-28 00:00:00 4.7 10 Noroeste 27 Noroeste 0 814.5 -- 100